Time;durP1;ratioP1;P1;durP2;ratioP2;P2;SDS_P1;SDS_P2;PMS_P1;PMS_P2;Temp;Humidity;BMP_temperature;BMP_pressure;BME280_temperature;BME280_humidity;BME280_pressure;Samples;Min_cycle;Max_cycle;Signal;HPM_P1;HPM_P2
2023/05/08 00:00:59;;;;;;;8.75;7.95;;;8.90;99.90;;;;;;5053109;28;20556;-60
2023/05/08 00:03:26;;;;;;;11.60;8.52;;;8.90;99.90;;;;;;5053093;28;20550;-61
2023/05/08 00:05:54;;;;;;;9.50;7.93;;;8.80;99.90;;;;;;5053202;28;20222;-61
2023/05/08 00:08:23;;;;;;;10.75;9.65;;;8.80;99.90;;;;;;5053240;28;20210;-60
2023/05/08 00:10:50;;;;;;;10.23;9.23;;;8.80;99.90;;;;;;5052968;28;20198;-60
2023/05/08 00:13:17;;;;;;;10.02;9.00;;;8.70;99.90;;;;;;5053047;28;20209;-60
2023/05/08 00:15:43;;;;;;;10.90;9.65;;;8.70;99.90;;;;;;5052867;28;20232;-60
2023/05/08 00:18:10;;;;;;;9.93;8.93;;;8.70;99.90;;;;;;5052702;28;20198;-61
2023/05/08 00:20:37;;;;;;;10.65;9.65;;;8.70;99.90;;;;;;5052507;28;20654;-61
2023/05/08 00:23:04;;;;;;;10.38;9.38;;;8.70;99.90;;;;;;5052699;28;20228;-61
2023/05/08 00:25:32;;;;;;;9.88;8.82;;;8.60;99.90;;;;;;5053101;28;20218;-61
2023/05/08 00:27:59;;;;;;;10.60;9.55;;;8.60;99.90;;;;;;5055911;28;20206;-61
2023/05/08 00:30:26;;;;;;;10.95;8.95;;;8.60;99.90;;;;;;5056427;28;20201;-61
2023/05/08 00:32:53;;;;;;;13.30;9.52;;;8.60;99.90;;;;;;5056704;28;20197;-61
2023/05/08 00:35:20;;;;;;;10.05;9.00;;;8.60;99.90;;;;;;5057020;28;20225;-61
2023/05/08 00:37:47;;;;;;;10.27;9.27;;;8.50;99.90;;;;;;5056917;28;20232;-61
2023/05/08 00:40:13;;;;;;;12.63;10.35;;;8.50;99.90;;;;;;5057309;28;20208;-60
2023/05/08 00:42:41;;;;;;;10.13;9.20;;;8.50;99.90;;;;;;5056553;28;20202;-61
2023/05/08 00:45:09;;;;;;;10.02;9.02;;;8.50;99.90;;;;;;5056597;28;20221;-60
2023/05/08 00:47:36;;;;;;;10.82;9.70;;;8.50;99.90;;;;;;5056199;28;20675;-62
2023/05/08 00:50:04;;;;;;;10.93;9.80;;;8.40;99.90;;;;;;5056488;28;20216;-61
2023/05/08 00:52:32;;;;;;;11.20;10.05;;;8.40;99.90;;;;;;5057004;28;20217;-61
2023/05/08 00:55:00;;;;;;;11.52;10.45;;;8.40;99.90;;;;;;5056508;28;20236;-61
2023/05/08 00:57:27;;;;;;;12.85;10.73;;;8.40;99.90;;;;;;5056340;28;20232;-61
2023/05/08 00:59:56;;;;;;;12.05;9.73;;;8.40;99.90;;;;;;5057221;28;20212;-61
2023/05/08 01:02:23;;;;;;;14.27;10.52;;;8.30;99.90;;;;;;5056887;28;20288;-61
2023/05/08 01:04:52;;;;;;;10.95;9.85;;;8.30;99.90;;;;;;5055941;28;20229;-61
2023/05/08 01:07:18;;;;;;;10.77;9.48;;;8.30;99.90;;;;;;5056449;28;20238;-61
2023/05/08 01:09:45;;;;;;;11.30;10.20;;;8.30;99.90;;;;;;5056392;28;20620;-61
2023/05/08 01:12:20;;;;;;;11.02;9.93;;;8.30;99.90;;;;;;5056758;28;20201;-61
2023/05/08 01:15:11;;;;;;;10.88;9.80;;;8.30;99.90;;;;;;5056920;28;20224;-61
2023/05/08 01:17:55;;;;;;;11.07;9.88;;;8.30;99.90;;;;;;5056223;28;20683;-61
2023/05/08 01:20:39;;;;;;;14.40;10.60;;;8.20;99.90;;;;;;5056770;28;20190;-61
2023/05/08 01:23:38;;;;;;;12.13;10.23;;;8.20;99.90;;;;;;5056015;28;20506;-61
2023/05/08 01:26:35;;;;;;;10.63;9.63;;;8.20;99.90;;;;;;5056053;28;20602;-61
2023/05/08 01:29:40;;;;;;;11.82;10.63;;;8.20;99.90;;;;;;5056754;28;20189;-61
2023/05/08 01:32:15;;;;;;;12.25;10.95;;;8.20;99.90;;;;;;5055921;28;20201;-60
2023/05/08 01:34:49;;;;;;;11.68;10.32;;;8.10;99.90;;;;;;5055392;28;20590;-61
2023/05/08 01:37:23;;;;;;;10.50;9.40;;;8.10;99.90;;;;;;5055803;28;20212;-61
2023/05/08 01:39:58;;;;;;;11.18;9.77;;;8.10;99.90;;;;;;5055359;28;20194;-61
2023/05/08 01:42:38;;;;;;;11.00;9.90;;;8.10;99.90;;;;;;5055895;28;20196;-61
2023/05/08 01:45:12;;;;;;;11.07;10.07;;;8.10;99.90;;;;;;5055805;28;20225;-61
2023/05/08 01:47:42;;;;;;;11.20;10.10;;;8.00;99.90;;;;;;5055771;28;20192;-61
2023/05/08 01:50:16;;;;;;;11.48;10.27;;;8.00;99.90;;;;;;5055719;28;20201;-61
2023/05/08 01:52:45;;;;;;;10.70;9.65;;;8.00;99.90;;;;;;5055704;28;20192;-61
2023/05/08 01:55:17;;;;;;;14.35;10.23;;;8.00;99.90;;;;;;5055508;28;20308;-60
2023/05/08 01:57:49;;;;;;;10.88;9.82;;;8.00;99.90;;;;;;5055508;28;20295;-61
2023/05/08 02:00:19;;;;;;;11.75;10.15;;;8.00;99.90;;;;;;5055338;28;20186;-61
2023/05/08 02:02:48;;;;;;;10.90;9.77;;;8.00;99.90;;;;;;5055417;28;20202;-61
2023/05/08 02:05:16;;;;;;;11.10;10.02;;;8.00;99.90;;;;;;5055529;28;20222;-60
2023/05/08 02:07:45;;;;;;;12.38;11.02;;;7.90;99.90;;;;;;5055303;28;20198;-60
2023/05/08 02:10:13;;;;;;;13.02;10.10;;;7.90;99.90;;;;;;5054966;28;20679;-62
2023/05/08 02:12:41;;;;;;;12.73;11.38;;;7.90;99.90;;;;;;5055201;28;20206;-61
2023/05/08 02:15:09;;;;;;;13.02;10.25;;;7.90;99.90;;;;;;5054920;28;20636;-60
2023/05/08 02:17:39;;;;;;;10.77;9.68;;;7.90;99.90;;;;;;5054849;28;20221;-60
2023/05/08 02:20:13;;;;;;;10.82;9.60;;;7.80;99.90;;;;;;5054441;28;20212;-61
2023/05/08 02:22:43;;;;;;;10.85;9.60;;;7.80;99.90;;;;;;5054836;28;20212;-60
2023/05/08 02:25:13;;;;;;;11.77;9.30;;;7.80;99.90;;;;;;5054579;28;20230;-61
2023/05/08 02:27:44;;;;;;;11.30;9.98;;;7.80;99.90;;;;;;5055690;28;20533;-60
2023/05/08 02:30:13;;;;;;;11.02;9.23;;;7.70;99.90;;;;;;5054759;28;20289;-60
2023/05/08 02:32:43;;;;;;;11.50;10.23;;;7.70;99.90;;;;;;5055884;28;20211;-60
2023/05/08 02:35:14;;;;;;;11.45;9.93;;;7.70;99.90;;;;;;5054575;28;20229;-61
2023/05/08 02:37:43;;;;;;;11.80;9.98;;;7.70;99.90;;;;;;5055190;28;20214;-61
2023/05/08 02:40:11;;;;;;;11.40;9.50;;;7.60;99.90;;;;;;5054541;28;20212;-61
2023/05/08 02:42:38;;;;;;;10.25;8.95;;;7.60;99.90;;;;;;5054482;28;20202;-61
2023/05/08 02:45:06;;;;;;;10.95;9.38;;;7.60;99.90;;;;;;5054382;28;20226;-62
2023/05/08 02:47:42;;;;;;;11.48;9.60;;;7.60;99.90;;;;;;5054303;28;20201;-61
2023/05/08 02:50:16;;;;;;;10.23;8.82;;;7.60;99.90;;;;;;5053102;28;20182;-61
2023/05/08 02:52:45;;;;;;;10.55;9.55;;;7.60;99.90;;;;;;5054148;28;20655;-62
2023/05/08 02:55:29;;;;;;;11.07;10.00;;;7.60;99.90;;;;;;5053686;28;20739;-62
2023/05/08 02:58:05;;;;;;;12.00;9.80;;;7.60;99.90;;;;;;5053980;28;20256;-58
2023/05/08 03:00:37;;;;;;;11.52;8.93;;;7.50;99.90;;;;;;5054052;28;20576;-61
2023/05/08 03:03:10;;;;;;;12.15;9.55;;;7.50;99.90;;;;;;5054008;28;20193;-61
2023/05/08 03:05:42;;;;;;;10.85;9.70;;;7.50;99.90;;;;;;5053894;28;20715;-61
2023/05/08 03:08:15;;;;;;;9.70;8.70;;;7.50;99.90;;;;;;5054140;28;20189;-61
2023/05/08 03:10:45;;;;;;;9.95;8.95;;;7.50;99.90;;;;;;5053970;28;20185;-61
2023/05/08 03:13:13;;;;;;;11.57;10.38;;;7.40;99.90;;;;;;5053740;28;20202;-61
2023/05/08 03:15:44;;;;;;;9.80;8.80;;;7.40;99.90;;;;;;5053737;28;20225;-61
2023/05/08 03:18:16;;;;;;;10.18;9.20;;;7.40;99.90;;;;;;5053433;28;20210;-60
2023/05/08 03:20:47;;;;;;;10.73;9.40;;;7.40;99.90;;;;;;5053821;28;20566;-61
2023/05/08 03:23:16;;;;;;;11.50;8.70;;;7.40;99.90;;;;;;5053674;28;20186;-61
2023/05/08 03:25:43;;;;;;;9.63;8.70;;;7.30;99.90;;;;;;5053295;28;20221;-61
2023/05/08 03:28:11;;;;;;;13.20;10.35;;;7.30;99.90;;;;;;5054058;28;20198;-60
2023/05/08 03:30:40;;;;;;;12.43;10.70;;;7.30;99.90;;;;;;5053445;28;20198;-60
2023/05/08 03:33:07;;;;;;;19.63;11.40;;;7.30;99.90;;;;;;5053579;28;20208;-61
2023/05/08 03:35:36;;;;;;;12.15;10.77;;;7.30;99.90;;;;;;5053683;28;20229;-59
2023/05/08 03:38:05;;;;;;;11.05;9.98;;;7.30;99.90;;;;;;5053516;28;20221;-61
2023/05/08 03:40:35;;;;;;;12.23;10.80;;;7.30;99.90;;;;;;5053319;28;20205;-61
2023/05/08 03:43:02;;;;;;;13.30;10.98;;;7.30;99.90;;;;;;5054136;28;20227;-61
2023/05/08 03:45:31;;;;;;;13.68;12.27;;;7.30;99.90;;;;;;5053088;28;20248;-60
2023/05/08 03:47:59;;;;;;;12.25;11.05;;;7.30;99.90;;;;;;5052991;28;20687;-60
2023/05/08 03:50:26;;;;;;;11.85;10.68;;;7.30;99.90;;;;;;5052838;28;20702;-61
2023/05/08 03:52:54;;;;;;;13.38;11.93;;;7.30;99.90;;;;;;5053332;28;20599;-61
2023/05/08 03:55:22;;;;;;;13.38;11.60;;;7.30;99.90;;;;;;5052774;28;20734;-61
2023/05/08 03:57:54;;;;;;;13.75;11.93;;;7.30;99.90;;;;;;5053291;28;20202;-60
2023/05/08 04:00:32;;;;;;;14.57;11.10;;;7.40;99.90;;;;;;5053326;28;20182;-61
2023/05/08 04:03:10;;;;;;;16.92;11.82;;;7.40;99.90;;;;;;5054386;28;20186;-61
2023/05/08 04:05:48;;;;;;;11.00;9.90;;;7.40;99.90;;;;;;5059762;28;20221;-60
2023/05/08 04:11:44;;;;;;;11.93;10.63;;;7.50;99.90;;;;;;5071417;28;20531;-61
2023/05/08 04:14:16;;;;;;;11.65;10.25;;;7.50;99.90;;;;;;5068317;27;20200;-60
2023/05/08 04:16:49;;;;;;;10.35;9.35;;;7.80;99.90;;;;;;5068238;28;20225;-61
2023/05/08 04:19:27;;;;;;;11.45;10.25;;;8.10;99.90;;;;;;5067776;28;20242;-62
2023/05/08 04:21:58;;;;;;;11.15;10.07;;;8.40;99.90;;;;;;5067491;28;20185;-61
2023/05/08 04:24:27;;;;;;;11.48;9.95;;;8.70;99.90;;;;;;5067498;28;20194;-61
2023/05/08 04:26:55;;;;;;;10.40;9.40;;;9.00;99.90;;;;;;5067036;28;20220;-61
2023/05/08 04:29:23;;;;;;;10.20;9.20;;;9.30;99.90;;;;;;5067135;28;20571;-61
2023/05/08 04:31:51;;;;;;;10.50;9.40;;;9.50;99.90;;;;;;5067308;28;20198;-62
2023/05/08 04:34:18;;;;;;;9.73;8.73;;;9.70;99.90;;;;;;5067565;28;20470;-61
2023/05/08 04:36:47;;;;;;;9.30;8.40;;;9.90;99.90;;;;;;5067830;28;20587;-61
2023/05/08 04:39:14;;;;;;;10.50;9.50;;;10.00;99.90;;;;;;5067162;28;20913;-62
2023/05/08 04:41:40;;;;;;;10.00;9.00;;;10.20;99.90;;;;;;5067816;28;20439;-61
2023/05/08 04:44:10;;;;;;;10.93;9.37;;;10.40;99.90;;;;;;5066943;28;20810;-62
2023/05/08 04:46:37;;;;;;;9.80;8.90;;;10.50;99.90;;;;;;5067312;28;20846;-62
2023/05/08 04:49:03;;;;;;;9.73;8.80;;;10.50;99.90;;;;;;5066964;28;20439;-62
2023/05/08 04:51:30;;;;;;;9.03;8.13;;;10.30;99.90;;;;;;5066552;28;20820;-61
2023/05/08 04:53:57;;;;;;;10.33;9.43;;;10.00;99.90;;;;;;5067117;28;20508;-60
2023/05/08 04:56:25;;;;;;;10.30;9.10;;;9.80;99.90;;;;;;5116777;22;20485;-65
2023/05/08 04:58:52;;;;;;;10.47;9.43;;;9.70;99.90;;;;;;5109992;28;20445;-66
2023/05/08 05:01:20;;;;;;;9.87;8.87;;;9.70;99.90;;;;;;5109243;28;20429;-66
2023/05/08 05:03:47;;;;;;;9.43;8.43;;;9.90;99.90;;;;;;5109654;28;20524;-66
2023/05/08 05:06:13;;;;;;;11.37;9.43;;;10.00;99.90;;;;;;5110076;28;20457;-66
2023/05/08 05:08:40;;;;;;;9.87;8.60;;;10.20;99.90;;;;;;5109770;28;20444;-62
2023/05/08 05:11:07;;;;;;;10.30;9.20;;;10.40;99.90;;;;;;5109492;28;20978;-66
2023/05/08 05:13:34;;;;;;;9.60;8.50;;;10.60;99.90;;;;;;5109406;28;20450;-66
2023/05/08 05:16:00;;;;;;;8.60;7.80;;;10.60;99.90;;;;;;5109727;28;20572;-65
2023/05/08 05:18:28;;;;;;;9.83;8.57;;;10.60;99.90;;;;;;5109480;28;20533;-65
2023/05/08 05:20:58;;;;;;;9.40;8.57;;;10.60;99.90;;;;;;5108008;28;20442;-65
2023/05/08 05:23:25;;;;;;;9.20;8.30;;;10.60;99.90;;;;;;5095462;28;20446;-65
2023/05/08 05:25:51;;;;;;;9.53;8.20;;;10.70;99.90;;;;;;5095765;28;20462;-65
2023/05/08 05:28:18;;;;;;;9.53;8.60;;;10.70;99.90;;;;;;5096561;28;20533;-65
2023/05/08 05:30:47;;;;;;;8.73;7.93;;;10.80;99.90;;;;;;5096012;28;20463;-66
2023/05/08 05:33:13;;;;;;;10.50;9.50;;;10.70;99.90;;;;;;5096208;28;20448;-65
2023/05/08 05:35:41;;;;;;;11.53;9.20;;;10.60;99.90;;;;;;5095883;28;20838;-65
2023/05/08 05:41:30;;;;;;;10.30;9.30;;;10.50;99.90;;;;;;5095802;28;20891;-65
2023/05/08 05:43:57;;;;;;;10.17;9.17;;;10.50;99.90;;;;;;5095032;28;20442;-65
2023/05/08 05:46:26;;;;;;;9.70;8.80;;;10.70;99.90;;;;;;5094967;28;20466;-65
2023/05/08 05:48:53;;;;;;;8.97;8.07;;;10.70;99.90;;;;;;5095235;28;20821;-65
2023/05/08 05:51:21;;;;;;;10.43;8.93;;;10.70;99.90;;;;;;5095031;28;20630;-65
2023/05/08 05:53:48;;;;;;;11.73;8.97;;;10.70;99.90;;;;;;5094927;28;20442;-65
2023/05/08 05:56:15;;;;;;;11.00;8.50;;;10.70;99.90;;;;;;5094539;28;21013;-65
2023/05/08 05:58:44;;;;;;;9.97;8.00;;;10.70;99.90;;;;;;5095390;28;20439;-64
2023/05/08 06:01:11;;;;;;;11.30;9.10;;;10.80;99.90;;;;;;5095505;28;20455;-65
2023/05/08 06:03:38;;;;;;;9.63;8.63;;;10.80;99.90;;;;;;5094829;28;20443;-65
2023/05/08 06:06:04;;;;;;;9.30;8.37;;;10.80;99.90;;;;;;5095122;28;20469;-63
2023/05/08 06:08:33;;;;;;;10.57;9.27;;;10.80;99.90;;;;;;5094701;28;20453;-64
2023/05/08 06:11:00;;;;;;;10.57;9.47;;;10.80;99.60;;;;;;5095286;28;20534;-64
2023/05/08 06:13:27;;;;;;;9.27;8.37;;;10.80;99.20;;;;;;5095486;28;20445;-64
2023/05/08 06:15:55;;;;;;;11.13;10.03;;;10.80;99.10;;;;;;5096369;28;20470;-64
2023/05/08 06:18:22;;;;;;;9.63;8.73;;;10.80;98.90;;;;;;5095495;28;20474;-66
2023/05/08 06:20:49;;;;;;;10.10;9.10;;;10.80;98.70;;;;;;5095183;28;20446;-65
2023/05/08 06:23:16;;;;;;;9.60;8.60;;;10.80;98.70;;;;;;5095330;28;20464;-65
2023/05/08 06:25:44;;;;;;;9.40;8.50;;;10.90;98.60;;;;;;5095350;28;20466;-65
2023/05/08 06:28:11;;;;;;;10.37;8.23;;;11.00;98.30;;;;;;5094956;28;20442;-64
2023/05/08 06:30:37;;;;;;;10.60;9.50;;;11.10;98.10;;;;;;5095714;28;20474;-66
2023/05/08 06:33:04;;;;;;;9.70;8.80;;;11.10;97.70;;;;;;5094113;28;20825;-65
2023/05/08 06:35:31;;;;;;;10.93;9.57;;;11.10;97.70;;;;;;5095310;28;20466;-65
2023/05/08 06:37:58;;;;;;;12.03;8.07;;;11.30;97.70;;;;;;5095335;28;20449;-64
2023/05/08 06:40:25;;;;;;;10.90;9.80;;;11.40;97.40;;;;;;5095461;28;20438;-66
2023/05/08 06:42:53;;;;;;;9.90;8.97;;;11.50;96.90;;;;;;5094729;28;20442;-66
2023/05/08 06:45:20;;;;;;;10.40;9.40;;;11.50;96.80;;;;;;5095069;28;20450;-64
2023/05/08 06:47:47;;;;;;;10.90;9.77;;;11.50;96.70;;;;;;5094882;28;20458;-65
2023/05/08 06:50:13;;;;;;;9.87;8.87;;;11.60;96.50;;;;;;5094882;28;20452;-66
2023/05/08 06:52:41;;;;;;;11.23;10.13;;;11.60;96.10;;;;;;5094553;28;20458;-65
2023/05/08 06:55:08;;;;;;;10.97;9.83;;;11.70;96.10;;;;;;5094281;28;20457;-65
2023/05/08 06:57:35;;;;;;;10.10;9.20;;;11.80;96.10;;;;;;5094456;28;20450;-65
2023/05/08 07:00:05;;;;;;;10.87;9.87;;;11.80;96.00;;;;;;5094839;28;20533;-63
2023/05/08 07:02:31;;;;;;;11.10;10.00;;;11.90;95.70;;;;;;5094621;28;20450;-65
2023/05/08 07:04:58;;;;;;;9.83;8.93;;;12.00;95.50;;;;;;5094628;28;20812;-67
2023/05/08 07:07:25;;;;;;;10.70;9.70;;;12.00;95.10;;;;;;5093879;28;20982;-66
2023/05/08 07:09:52;;;;;;;9.53;8.63;;;12.10;95.20;;;;;;5094028;28;20940;-67
2023/05/08 07:12:19;;;;;;;10.30;9.27;;;12.10;94.90;;;;;;5094613;28;20480;-67
2023/05/08 07:14:46;;;;;;;11.43;9.60;;;12.20;94.70;;;;;;5093812;28;20445;-67
2023/05/08 07:17:14;;;;;;;12.70;10.20;;;12.30;94.40;;;;;;5093670;28;20524;-66
2023/05/08 07:19:41;;;;;;;9.40;8.60;;;12.30;94.30;;;;;;5093791;28;20442;-66
2023/05/08 07:22:08;;;;;;;10.13;9.13;;;12.40;94.30;;;;;;5093778;28;20446;-66
2023/05/08 07:24:34;;;;;;;10.30;9.30;;;12.60;94.20;;;;;;5093303;28;20944;-65
2023/05/08 07:27:01;;;;;;;10.30;9.20;;;12.80;93.60;;;;;;5093847;28;20478;-66
2023/05/08 07:29:28;;;;;;;13.10;9.20;;;12.90;92.80;;;;;;5093275;28;20872;-66
2023/05/08 07:31:55;;;;;;;11.20;9.57;;;13.00;92.30;;;;;;5093518;28;20477;-67
2023/05/08 07:34:23;;;;;;;11.20;10.03;;;13.00;91.90;;;;;;5093636;28;20962;-67
2023/05/08 07:36:50;;;;;;;10.50;9.50;;;13.20;91.60;;;;;;5093626;28;20470;-67
2023/05/08 07:39:17;;;;;;;11.03;9.00;;;13.20;90.80;;;;;;5093156;28;20446;-66
2023/05/08 07:41:44;;;;;;;10.60;9.50;;;13.20;90.60;;;;;;5093382;28;20443;-65
2023/05/08 07:44:11;;;;;;;10.67;8.93;;;13.30;90.70;;;;;;5093774;28;20807;-68
2023/05/08 07:46:38;;;;;;;10.40;9.47;;;13.40;90.10;;;;;;5094113;28;21002;-63
2023/05/08 07:49:05;;;;;;;14.50;10.67;;;13.40;89.30;;;;;;5093069;28;20453;-62
2023/05/08 07:51:33;;;;;;;10.63;9.67;;;13.40;88.90;;;;;;5093159;28;21014;-63
2023/05/08 07:54:00;;;;;;;9.83;8.83;;;13.40;89.00;;;;;;5094048;28;20446;-67
2023/05/08 07:56:27;;;;;;;11.03;8.40;;;13.50;88.80;;;;;;5093134;28;20483;-66
2023/05/08 07:58:54;;;;;;;10.57;9.53;;;13.70;88.10;;;;;;5093022;28;20871;-67
2023/05/08 08:01:20;;;;;;;11.07;9.53;;;13.80;86.90;;;;;;5092978;28;20441;-67
2023/05/08 08:03:48;;;;;;;10.87;9.77;;;13.90;86.10;;;;;;5093516;28;20923;-67
2023/05/08 08:06:14;;;;;;;10.63;9.70;;;14.00;85.60;;;;;;5092933;28;20459;-68
2023/05/08 08:08:42;;;;;;;11.47;10.37;;;14.10;84.60;;;;;;5093510;28;20896;-67
2023/05/08 08:11:09;;;;;;;10.23;9.17;;;14.20;83.50;;;;;;5093060;28;20908;-67
2023/05/08 08:13:36;;;;;;;10.50;9.50;;;14.20;83.00;;;;;;5093576;28;20438;-68
2023/05/08 08:16:03;;;;;;;11.33;8.60;;;14.30;82.90;;;;;;5092937;28;20999;-67
2023/05/08 08:18:33;;;;;;;10.80;9.13;;;14.40;81.60;;;;;;5093288;28;20450;-67
2023/05/08 08:21:00;;;;;;;12.00;9.30;;;14.40;81.40;;;;;;5093156;28;20450;-67
2023/05/08 08:23:27;;;;;;;10.57;9.57;;;14.60;81.20;;;;;;5093720;28;20485;-69
2023/05/08 08:25:55;;;;;;;10.07;9.07;;;14.80;80.10;;;;;;5093562;28;20550;-68
2023/05/08 08:28:22;;;;;;;9.77;8.87;;;14.90;78.70;;;;;;5094210;28;20434;-68
2023/05/08 08:30:49;;;;;;;9.60;8.67;;;15.00;77.90;;;;;;5093639;28;20435;-67
2023/05/08 08:33:16;;;;;;;9.53;7.80;;;15.10;77.00;;;;;;5093543;28;20447;-67
2023/05/08 08:35:43;;;;;;;8.80;7.90;;;15.20;75.80;;;;;;5093389;28;20474;-68
2023/05/08 08:38:10;;;;;;;10.43;8.40;;;15.20;75.40;;;;;;5093325;28;20454;-68
2023/05/08 08:40:39;;;;;;;8.87;8.07;;;15.40;74.80;;;;;;5093219;28;20450;-68
2023/05/08 08:43:07;;;;;;;9.50;8.50;;;15.50;73.50;;;;;;5092763;28;20442;-67
2023/05/08 08:45:35;;;;;;;10.00;9.10;;;15.60;73.10;;;;;;5092357;28;20462;-67
2023/05/08 08:48:03;;;;;;;8.67;7.87;;;15.60;71.30;;;;;;5093162;28;20517;-67
2023/05/08 08:50:32;;;;;;;9.10;8.30;;;15.70;71.20;;;;;;5092912;28;20464;-67
2023/05/08 08:53:07;;;;;;;9.43;8.50;;;15.80;70.20;;;;;;5093186;28;20474;-68
2023/05/08 08:55:37;;;;;;;9.10;8.27;;;15.80;69.50;;;;;;5093158;28;20456;-69
2023/05/08 08:58:14;;;;;;;8.70;7.80;;;15.80;69.10;;;;;;5096535;28;20427;-69
2023/05/08 09:00:42;;;;;;;8.70;7.90;;;15.80;68.70;;;;;;5097222;28;20430;-69
2023/05/08 09:03:10;;;;;;;10.43;8.97;;;15.90;68.40;;;;;;5097315;28;20442;-68
2023/05/08 09:05:37;;;;;;;8.53;7.73;;;15.90;68.10;;;;;;5096798;28;20462;-68
2023/05/08 09:08:05;;;;;;;9.80;8.67;;;16.10;67.70;;;;;;5097369;28;20454;-68
2023/05/08 09:10:34;;;;;;;8.37;7.60;;;16.20;67.10;;;;;;5096858;28;20544;-69
2023/05/08 09:13:01;;;;;;;9.77;8.77;;;16.30;66.40;;;;;;5096752;28;21054;-68
2023/05/08 09:15:30;;;;;;;8.73;7.93;;;16.40;66.00;;;;;;5096870;28;20474;-69
2023/05/08 09:17:57;;;;;;;9.83;8.03;;;16.50;65.70;;;;;;5097221;28;20457;-69
2023/05/08 09:20:25;;;;;;;7.60;6.97;;;16.60;65.10;;;;;;5097072;28;20446;-69
2023/05/08 09:22:54;;;;;;;8.97;8.07;;;16.70;64.80;;;;;;5096487;28;20442;-68
2023/05/08 09:25:20;;;;;;;9.07;7.97;;;16.90;64.40;;;;;;5096130;28;20453;-68
2023/05/08 09:27:47;;;;;;;9.50;8.47;;;17.00;63.50;;;;;;5096112;28;20449;-68
2023/05/08 09:30:14;;;;;;;8.90;8.10;;;17.00;62.90;;;;;;5096204;28;20449;-69
2023/05/08 09:32:44;;;;;;;10.10;8.03;;;17.10;62.20;;;;;;5096326;28;20484;-69
2023/05/08 09:35:11;;;;;;;10.30;9.03;;;17.10;61.80;;;;;;5096009;28;20812;-68
2023/05/08 09:37:39;;;;;;;9.20;8.30;;;17.10;61.80;;;;;;5095931;28;20458;-68
2023/05/08 09:40:17;;;;;;;9.90;8.90;;;17.20;61.50;;;;;;5096223;28;20465;-68
2023/05/08 09:42:44;;;;;;;8.73;7.93;;;17.30;61.20;;;;;;5096499;28;20431;-67
2023/05/08 09:45:11;;;;;;;9.93;9.03;;;17.40;60.80;;;;;;5096518;28;20442;-67
2023/05/08 09:47:38;;;;;;;8.30;7.60;;;17.50;60.60;;;;;;5095976;28;20815;-67
2023/05/08 09:50:08;;;;;;;10.00;8.90;;;17.60;60.20;;;;;;5096242;28;20446;-67
2023/05/08 09:52:36;;;;;;;8.63;7.63;;;17.70;59.70;;;;;;5095510;28;20995;-68
2023/05/08 09:55:05;;;;;;;9.20;8.30;;;17.80;59.30;;;;;;5095680;28;20443;-67
2023/05/08 09:57:35;;;;;;;10.20;7.90;;;17.90;59.30;;;;;;5095598;28;20466;-68
2023/05/08 10:00:04;;;;;;;9.47;7.83;;;18.10;58.80;;;;;;5096621;28;20443;-68
2023/05/08 10:02:31;;;;;;;8.53;7.60;;;18.20;58.20;;;;;;5095167;28;20457;-69
2023/05/08 10:04:58;;;;;;;8.87;8.07;;;18.30;57.90;;;;;;5095212;28;20529;-68
2023/05/08 10:07:30;;;;;;;10.23;8.17;;;18.30;56.90;;;;;;5095632;28;20565;-68
2023/05/08 10:10:01;;;;;;;7.47;6.80;;;18.30;56.70;;;;;;5095772;28;20434;-68
2023/05/08 10:12:29;;;;;;;7.73;7.03;;;18.20;56.30;;;;;;5095409;28;20485;-67
2023/05/08 10:14:55;;;;;;;6.90;6.30;;;18.20;56.40;;;;;;5095118;28;20439;-67
2023/05/08 10:17:27;;;;;;;7.30;6.07;;;18.20;56.00;;;;;;5095203;28;20463;-68
2023/05/08 10:20:00;;;;;;;7.20;6.60;;;18.20;55.50;;;;;;5094868;28;20468;-67
2023/05/08 10:22:32;;;;;;;7.97;7.27;;;18.30;55.90;;;;;;5094853;28;20480;-67
2023/05/08 10:25:02;;;;;;;7.60;6.40;;;18.30;55.10;;;;;;5095025;28;20437;-68
2023/05/08 10:27:36;;;;;;;7.33;6.37;;;18.30;54.80;;;;;;5095260;28;20473;-68
2023/05/08 10:30:04;;;;;;;7.23;6.63;;;18.30;54.50;;;;;;5095248;28;20431;-68
2023/05/08 10:32:39;;;;;;;6.70;6.10;;;18.40;54.40;;;;;;5094582;28;20482;-68
2023/05/08 10:35:09;;;;;;;7.30;6.50;;;18.50;54.10;;;;;;5095058;28;20525;-68
2023/05/08 10:37:38;;;;;;;9.07;8.23;;;18.70;54.00;;;;;;5095571;28;20450;-68
2023/05/08 10:40:08;;;;;;;9.10;7.70;;;18.80;53.40;;;;;;5094660;28;20469;-67
2023/05/08 10:42:36;;;;;;;8.60;7.73;;;18.70;53.20;;;;;;5094677;28;20442;-67
2023/05/08 10:45:04;;;;;;;7.83;6.83;;;18.60;53.20;;;;;;5095380;28;20446;-67
2023/05/08 10:47:44;;;;;;;8.57;7.70;;;18.60;53.40;;;;;;5094759;28;20445;-67
2023/05/08 10:50:22;;;;;;;7.87;7.17;;;18.70;53.40;;;;;;5094285;28;20427;-67
2023/05/08 10:52:59;;;;;;;7.90;7.20;;;18.70;53.40;;;;;;5094158;28;20962;-68
2023/05/08 10:55:30;;;;;;;9.40;8.50;;;18.80;52.90;;;;;;5094266;28;20462;-67
2023/05/08 10:58:10;;;;;;;8.33;7.53;;;18.80;52.60;;;;;;5094221;28;20427;-67
2023/05/08 11:01:10;;;;;;;14.40;11.43;;;18.90;52.70;;;;;;5105842;22;20482;-61
2023/05/08 11:03:40;;;;;;;9.77;8.87;;;19.10;52.60;;;;;;5075541;28;20941;-61
2023/05/08 11:06:07;;;;;;;9.83;8.90;;;19.20;52.60;;;;;;5076645;28;20457;-63
2023/05/08 11:08:45;;;;;;;8.60;7.77;;;19.20;52.50;;;;;;5076564;28;20458;-61
2023/05/08 11:11:23;;;;;;;7.53;6.93;;;19.10;52.60;;;;;;5076099;28;20469;-59
2023/05/08 11:13:54;;;;;;;6.83;6.10;;;19.20;52.80;;;;;;5076625;28;20426;-60
2023/05/08 11:16:55;;;;;;;8.30;7.50;;;19.30;52.20;;;;;;5077317;28;20436;-62
2023/05/08 11:19:22;;;;;;;9.23;7.20;;;19.50;52.10;;;;;;5074575;28;20550;-62
2023/05/08 11:22:14;;;;;;;8.33;7.50;;;19.60;51.80;;;;;;5074953;28;20448;-61
2023/05/08 11:24:48;;;;;;;8.37;7.27;;;19.70;51.70;;;;;;5074920;28;20483;-61
2023/05/08 11:27:15;;;;;;;8.17;7.47;;;19.80;51.60;;;;;;5074659;28;20419;-60
2023/05/08 11:29:43;;;;;;;7.50;6.53;;;19.80;51.30;;;;;;5074269;28;20537;-61
2023/05/08 11:32:10;;;;;;;7.60;6.87;;;19.90;51.20;;;;;;5076405;28;20548;-62
2023/05/08 11:34:48;;;;;;;7.80;7.10;;;20.00;51.00;;;;;;5076753;28;20470;-62
2023/05/08 11:37:19;;;;;;;8.53;7.63;;;20.00;50.70;;;;;;5079984;28;20451;-62
2023/05/08 11:39:48;;;;;;;9.23;8.10;;;20.00;50.50;;;;;;5081060;28;20459;-62
2023/05/08 11:42:35;;;;;;;8.97;8.17;;;20.00;51.00;;;;;;5079835;28;20447;-62
2023/05/08 11:45:07;;;;;;;8.63;7.83;;;19.90;50.30;;;;;;5080308;28;20432;-62
2023/05/08 11:47:38;;;;;;;9.10;8.07;;;19.90;50.40;;;;;;5079677;28;20806;-61
2023/05/08 11:50:07;;;;;;;10.47;8.77;;;20.30;50.50;;;;;;5079460;28;20487;-61
2023/05/08 11:52:35;;;;;;;10.30;9.30;;;20.70;49.40;;;;;;5075581;28;20506;-61
2023/05/08 11:55:06;;;;;;;9.90;9.00;;;21.00;48.60;;;;;;5075119;28;20443;-62
2023/05/08 11:57:33;;;;;;;10.47;8.50;;;21.40;48.20;;;;;;5075622;28;20432;-61
2023/05/08 12:00:05;;;;;;;10.33;9.27;;;21.80;47.60;;;;;;5074799;28;20481;-62
2023/05/08 12:02:37;;;;;;;9.50;8.53;;;22.10;46.90;;;;;;5075048;28;20458;-61
2023/05/08 12:05:04;;;;;;;10.33;9.33;;;22.30;46.30;;;;;;5074705;28;20455;-61
2023/05/08 12:07:31;;;;;;;9.30;8.40;;;22.30;45.60;;;;;;5074132;28;20447;-60
2023/05/08 12:10:00;;;;;;;8.70;7.80;;;22.30;45.70;;;;;;5073503;28;20459;-60
2023/05/08 12:12:37;;;;;;;9.33;8.43;;;22.50;45.90;;;;;;5074128;28;20509;-60
2023/05/08 12:15:08;;;;;;;10.53;9.50;;;22.80;45.50;;;;;;5074069;28;20431;-60
2023/05/08 12:17:35;;;;;;;9.70;8.80;;;22.90;45.00;;;;;;5073968;28;20428;-59
2023/05/08 12:20:13;;;;;;;9.50;8.60;;;22.80;45.00;;;;;;5073911;28;20467;-61
2023/05/08 12:22:40;;;;;;;9.70;8.80;;;22.90;45.10;;;;;;5075117;28;20825;-62
2023/05/08 12:25:08;;;;;;;10.47;9.00;;;23.00;45.00;;;;;;5074652;28;20452;-59
2023/05/08 12:27:37;;;;;;;9.10;8.20;;;23.00;45.10;;;;;;5074364;28;20481;-60
2023/05/08 12:30:09;;;;;;;11.23;8.57;;;22.70;45.00;;;;;;5074260;28;20834;-60
2023/05/08 12:32:38;;;;;;;10.63;9.63;;;22.30;45.60;;;;;;5078721;28;20485;-61
2023/05/08 12:35:06;;;;;;;9.80;8.80;;;21.80;46.20;;;;;;5081025;28;20547;-60
2023/05/08 12:37:33;;;;;;;8.77;8.00;;;21.30;47.40;;;;;;5080763;28;20452;-60
2023/05/08 12:39:59;;;;;;;9.50;8.43;;;20.80;47.70;;;;;;5080093;28;20475;-61
2023/05/08 12:45:20;;;;;;;8.10;7.30;;;20.50;48.50;;;;;;5093617;27;20544;-58
2023/05/08 12:47:48;;;;;;;7.50;6.80;;;20.50;49.10;;;;;;5093624;28;20442;-62
2023/05/08 12:50:16;;;;;;;8.13;7.30;;;20.70;49.10;;;;;;5093989;28;20468;-60
2023/05/08 12:52:43;;;;;;;7.23;6.53;;;20.80;48.90;;;;;;5093631;28;20449;-60
2023/05/08 12:55:24;;;;;;;8.50;7.70;;;20.80;48.50;;;;;;5093268;28;20434;-60
2023/05/08 12:57:59;;;;;;;11.53;7.60;;;20.90;48.60;;;;;;5092767;28;20439;-61
2023/05/08 13:00:35;;;;;;;7.50;6.70;;;20.90;48.50;;;;;;5092685;28;20469;-60
2023/05/08 13:03:02;;;;;;;8.23;7.43;;;21.00;48.40;;;;;;5092391;28;20468;-61
2023/05/08 13:05:29;;;;;;;8.00;7.03;;;21.10;48.40;;;;;;5092152;28;20453;-61